Time;durP1;ratioP1;P1;durP2;ratioP2;P2;SDS_P1;SDS_P2;PMS_P1;PMS_P2;Temp;Humidity;BMP_temperature;BMP_pressure;BME280_temperature;BME280_humidity;BME280_pressure;Samples;Min_cycle;Max_cycle;Signal;HPM_P1;HPM_P2
2021/05/10 00:01:22;;;;;;;4.43;3.13;;;;;;;11.14;100.00;102433.13;5115425;27;20170;-68
2021/05/10 00:03:48;;;;;;;9.27;3.77;;;;;;;11.05;100.00;102429.13;5138082;27;20270;-73
2021/05/10 00:06:17;;;;;;;4.40;3.03;;;;;;;11.08;100.00;102431.63;5115122;27;20162;-70
2021/05/10 00:08:43;;;;;;;5.03;3.20;;;;;;;11.04;100.00;102435.31;5136333;27;20956;-73
2021/05/10 00:11:08;;;;;;;5.67;3.57;;;;;;;11.00;100.00;102429.28;5133532;27;20451;-69
2021/05/10 00:13:34;;;;;;;4.90;3.17;;;;;;;10.98;100.00;102433.78;5137098;27;20475;-71
2021/05/10 00:16:00;;;;;;;7.03;3.30;;;;;;;10.90;100.00;102432.38;5134059;27;20175;-71
2021/05/10 00:18:25;;;;;;;5.43;3.57;;;;;;;10.93;100.00;102434.88;5138929;27;20812;-70
2021/05/10 00:20:51;;;;;;;7.13;3.83;;;;;;;10.96;100.00;102429.50;5134586;27;20640;-69
2021/05/10 00:23:18;;;;;;;5.40;4.33;;;;;;;10.89;100.00;102428.91;5134682;27;20177;-69
2021/05/10 00:25:44;;;;;;;7.07;4.90;;;;;;;10.84;100.00;102421.19;5134411;27;21015;-68
2021/05/10 00:28:10;;;;;;;8.00;6.27;;;;;;;10.83;100.00;102421.25;5134647;27;20465;-69
2021/05/10 00:30:36;;;;;;;13.80;9.20;;;;;;;10.83;100.00;102429.16;5138942;27;20563;-68
2021/05/10 00:33:03;;;;;;;11.47;9.67;;;;;;;10.76;100.00;102431.16;5137165;27;20562;-68
2021/05/10 00:35:29;;;;;;;14.13;10.37;;;;;;;10.68;100.00;102424.50;5135136;27;20423;-71
2021/05/10 00:37:54;;;;;;;12.00;8.87;;;;;;;10.63;100.00;102427.31;5135174;27;20416;-71
2021/05/10 00:40:25;;;;;;;11.90;8.53;;;;;;;10.62;100.00;102433.47;5136025;27;20201;-71
2021/05/10 00:42:51;;;;;;;12.90;8.80;;;;;;;10.70;100.00;102423.50;5143568;27;20233;-68
2021/05/10 00:45:17;;;;;;;12.13;8.93;;;;;;;10.47;100.00;102428.81;5135621;27;20526;-71
2021/05/10 00:47:44;;;;;;;11.33;8.43;;;;;;;10.44;100.00;102421.06;5140621;27;20212;-73
2021/05/10 00:50:12;;;;;;;11.00;7.70;;;;;;;10.47;100.00;102426.19;5137931;27;20858;-72
2021/05/10 00:52:38;;;;;;;9.73;6.87;;;;;;;10.54;100.00;102422.41;5138821;27;20463;-73
2021/05/10 00:55:08;;;;;;;11.00;6.87;;;;;;;10.60;100.00;102416.06;5136353;27;21255;-72
2021/05/10 00:57:38;;;;;;;7.43;5.77;;;;;;;10.72;100.00;102415.56;5135433;27;20182;-72
2021/05/10 01:00:06;;;;;;;9.17;6.40;;;;;;;10.57;100.00;102415.25;5144731;27;20411;-72
2021/05/10 01:02:31;;;;;;;11.53;6.97;;;;;;;10.45;100.00;102409.66;5137514;27;20435;-74
2021/05/10 01:04:57;;;;;;;8.00;5.57;;;;;;;10.45;100.00;102407.00;5134745;27;20427;-68
2021/05/10 01:07:22;;;;;;;7.37;5.67;;;;;;;10.52;100.00;102406.72;5139045;27;20174;-70
2021/05/10 01:09:48;;;;;;;7.97;4.73;;;;;;;10.57;100.00;102409.13;5135166;27;20201;-69
2021/05/10 01:12:13;;;;;;;9.10;4.73;;;;;;;10.53;100.00;102411.06;5135518;27;20220;-72
2021/05/10 01:14:39;;;;;;;8.10;4.93;;;;;;;10.54;100.00;102410.13;5136370;27;20248;-69
2021/05/10 01:17:05;;;;;;;6.70;4.50;;;;;;;10.55;100.00;102403.94;5135338;27;20158;-70
2021/05/10 01:19:34;;;;;;;7.80;5.63;;;;;;;10.46;100.00;102408.72;5137054;27;20261;-69
2021/05/10 01:22:03;;;;;;;7.93;5.80;;;;;;;10.43;100.00;102408.84;5134883;27;20170;-75
2021/05/10 01:24:29;;;;;;;12.70;7.40;;;;;;;10.43;100.00;102406.22;5142893;27;20461;-74
2021/05/10 01:26:54;;;;;;;9.83;6.83;;;;;;;10.39;100.00;102399.38;5132535;27;20451;-74
2021/05/10 01:29:20;;;;;;;10.00;7.37;;;;;;;10.40;100.00;102401.06;5131785;27;20654;-72
2021/05/10 01:31:46;;;;;;;10.20;8.13;;;;;;;10.40;100.00;102401.06;5134511;27;20212;-69
2021/05/10 01:34:11;;;;;;;9.73;7.90;;;;;;;10.30;100.00;102400.59;5133084;27;20170;-67
2021/05/10 01:36:37;;;;;;;11.20;9.07;;;;;;;10.27;100.00;102401.53;5134423;27;20178;-72
2021/05/10 01:39:03;;;;;;;13.33;7.67;;;;;;;10.34;100.00;102401.31;5134721;27;20178;-69
2021/05/10 01:41:29;;;;;;;13.00;9.27;;;;;;;10.26;100.00;102396.34;5130771;27;20221;-72
2021/05/10 01:43:54;;;;;;;10.57;8.97;;;;;;;10.22;100.00;102402.63;5132562;27;20415;-70
2021/05/10 01:46:20;;;;;;;12.70;8.77;;;;;;;10.20;100.00;102400.06;5132811;27;20205;-72
2021/05/10 01:48:45;;;;;;;9.67;7.73;;;;;;;10.15;100.00;102401.16;5133399;27;20173;-72
2021/05/10 01:51:11;;;;;;;9.70;7.47;;;;;;;10.11;100.00;102397.75;5131218;27;20229;-67
2021/05/10 01:53:37;;;;;;;13.50;8.37;;;;;;;10.08;100.00;102400.50;5136872;27;20219;-70
2021/05/10 01:56:02;;;;;;;11.87;7.03;;;;;;;10.06;100.00;102406.75;5134038;27;20723;-72
2021/05/10 01:58:28;;;;;;;11.63;7.40;;;;;;;10.06;100.00;102401.50;5133097;27;20178;-75
2021/05/10 02:00:53;;;;;;;11.00;7.87;;;;;;;9.97;100.00;102400.94;5149640;27;20196;-71
2021/05/10 02:03:21;;;;;;;9.97;8.17;;;;;;;9.90;100.00;102391.56;5138483;27;20177;-75
2021/05/10 02:05:48;;;;;;;11.93;8.17;;;;;;;9.88;100.00;102396.00;5148682;27;20641;-71
2021/05/10 02:08:15;;;;;;;10.30;7.53;;;;;;;9.90;100.00;102395.94;5150922;27;20434;-71
2021/05/10 02:10:48;;;;;;;10.20;7.93;;;;;;;9.91;100.00;102400.31;5155368;27;20433;-73
2021/05/10 02:13:21;;;;;;;12.30;8.33;;;;;;;9.89;100.00;102389.84;5126757;27;20487;-73
2021/05/10 02:15:49;;;;;;;14.23;8.27;;;;;;;9.95;100.00;102394.00;5147198;27;20980;-75
2021/05/10 02:18:18;;;;;;;10.00;7.37;;;;;;;9.82;100.00;102395.38;5147684;27;20940;-75
2021/05/10 02:20:45;;;;;;;11.87;8.90;;;;;;;9.77;100.00;102392.94;5144504;27;20506;-75
2021/05/10 02:23:32;;;;;;;13.43;7.13;;;;;;;9.73;100.00;102394.78;5119565;27;20436;-76
2021/05/10 02:26:00;;;;;;;17.40;9.20;;;;;;;9.71;100.00;102394.00;5135938;27;20948;-75
2021/05/10 02:28:28;;;;;;;10.93;8.47;;;;;;;9.68;100.00;102394.13;5135788;27;20407;-74
2021/05/10 02:30:55;;;;;;;12.00;8.27;;;;;;;9.67;100.00;102395.03;5141626;27;20416;-75
2021/05/10 02:33:23;;;;;;;13.20;8.33;;;;;;;9.72;100.00;102400.09;5144629;27;20445;-76
2021/05/10 02:35:51;;;;;;;12.50;8.77;;;;;;;9.68;100.00;102394.13;5138877;27;20419;-72
2021/05/10 02:38:18;;;;;;;12.70;8.40;;;;;;;9.70;100.00;102394.91;5156313;27;20486;-75
2021/05/10 02:40:46;;;;;;;12.47;7.90;;;;;;;9.66;100.00;102395.06;5154484;27;20458;-75
2021/05/10 02:43:12;;;;;;;10.17;8.17;;;;;;;9.65;100.00;102390.75;5135779;27;20439;-74
2021/05/10 02:45:38;;;;;;;17.53;8.57;;;;;;;9.66;100.00;102387.19;5135389;27;20913;-73
2021/05/10 02:48:04;;;;;;;13.90;8.10;;;;;;;9.64;100.00;102395.13;5135330;27;20249;-73
2021/05/10 02:50:29;;;;;;;9.97;7.67;;;;;;;9.65;100.00;102396.00;5135314;27;20158;-73
2021/05/10 02:52:55;;;;;;;12.90;8.57;;;;;;;9.59;100.00;102398.81;5151957;27;20454;-72
2021/05/10 02:55:21;;;;;;;10.27;8.30;;;;;;;9.58;100.00;102405.84;5154350;27;20223;-73
2021/05/10 02:57:50;;;;;;;12.63;7.77;;;;;;;9.58;100.00;102405.00;5146810;27;20215;-72
2021/05/10 03:00:19;;;;;;;10.70;8.43;;;;;;;9.57;100.00;102405.91;5134674;27;20222;-73
2021/05/10 03:02:45;;;;;;;12.77;8.90;;;;;;;9.57;100.00;102414.63;5135439;27;20458;-75
2021/05/10 03:05:13;;;;;;;12.17;7.87;;;;;;;9.60;100.00;102408.44;5137069;27;20502;-72
2021/05/10 03:07:39;;;;;;;10.80;8.30;;;;;;;9.61;100.00;102408.38;5114295;27;20662;-72
2021/05/10 03:10:08;;;;;;;16.53;10.40;;;;;;;9.66;100.00;102403.81;5148730;27;20424;-75
2021/05/10 03:12:33;;;;;;;14.40;9.17;;;;;;;9.74;100.00;102412.25;5134570;27;20459;-75
2021/05/10 03:14:59;;;;;;;11.63;8.43;;;;;;;9.82;100.00;102409.34;5135186;27;20376;-75
2021/05/10 03:17:25;;;;;;;13.73;8.43;;;;;;;9.77;100.00;102419.19;5147752;27;20178;-72
2021/05/10 03:19:51;;;;;;;12.03;8.10;;;;;;;9.71;100.00;102415.00;5145217;27;20427;-75
2021/05/10 03:22:16;;;;;;;12.40;8.83;;;;;;;9.72;100.00;102416.72;5136916;27;20205;-76
2021/05/10 03:24:42;;;;;;;13.07;8.57;;;;;;;9.69;100.00;102415.97;5147572;27;20257;-74
2021/05/10 03:27:07;;;;;;;18.60;7.43;;;;;;;9.72;100.00;102419.34;5134311;27;20182;-73
2021/05/10 03:29:33;;;;;;;10.73;8.10;;;;;;;9.83;100.00;102418.97;5134423;27;20588;-74
2021/05/10 03:31:59;;;;;;;12.53;9.17;;;;;;;9.87;100.00;102420.53;5134455;27;20200;-72
2021/05/10 03:34:25;;;;;;;11.10;8.20;;;;;;;9.83;100.00;102415.47;5134856;27;20159;-74
2021/05/10 03:36:50;;;;;;;17.13;10.10;;;;;;;9.81;100.00;102425.16;5144912;27;20653;-75
2021/05/10 03:39:16;;;;;;;12.77;8.77;;;;;;;9.85;100.00;102418.91;5154827;27;20167;-76
2021/05/10 03:41:41;;;;;;;15.27;8.53;;;;;;;9.93;100.00;102416.84;5144425;27;20206;-72
2021/05/10 03:44:07;;;;;;;12.30;8.30;;;;;;;9.93;100.00;102417.69;5134552;27;20257;-70
2021/05/10 03:46:32;;;;;;;11.03;8.67;;;;;;;9.88;100.00;102418.78;5136946;27;20225;-75
2021/05/10 03:48:58;;;;;;;10.80;8.63;;;;;;;9.96;100.00;102416.72;5155370;27;20166;-71
2021/05/10 03:51:24;;;;;;;12.13;7.47;;;;;;;10.00;100.00;102415.72;5147633;27;20229;-72
2021/05/10 03:53:49;;;;;;;21.37;8.77;;;;;;;10.00;100.00;102418.34;5152055;27;20169;-70
2021/05/10 03:56:15;;;;;;;12.60;8.90;;;;;;;10.01;100.00;102420.03;5151679;27;20423;-71
2021/05/10 03:58:40;;;;;;;13.93;9.73;;;;;;;10.05;100.00;102419.03;5151910;27;20174;-71
2021/05/10 04:01:07;;;;;;;14.73;9.13;;;;;;;10.10;100.00;102419.69;5153707;27;20185;-70
2021/05/10 04:04:01;;;;;;;13.13;9.87;;;;;;;10.17;100.00;102423.78;5154798;27;20152;-72
2021/05/10 04:14:13;;;;;;;14.97;9.10;;;;;;;10.60;100.00;102409.03;5151251;27;20546;-73
2021/05/10 04:16:38;;;;;;;13.53;9.90;;;;;;;10.64;100.00;102407.13;5134679;27;20423;-75
2021/05/10 04:19:04;;;;;;;16.10;9.83;;;;;;;10.76;100.00;102412.75;5133133;27;20167;-74
2021/05/10 04:21:29;;;;;;;15.03;9.50;;;;;;;10.95;100.00;102406.72;5131565;27;20178;-73
2021/05/10 04:23:55;;;;;;;13.17;9.20;;;;;;;11.03;100.00;102408.16;5142261;27;20168;-75
2021/05/10 04:26:20;;;;;;;16.27;8.83;;;;;;;11.14;100.00;102415.56;5152605;27;20654;-74
2021/05/10 04:28:46;;;;;;;21.33;11.63;;;;;;;11.28;100.00;102412.38;5153440;27;20162;-73
2021/05/10 04:31:11;;;;;;;13.60;9.70;;;;;;;11.37;100.00;102415.44;5141722;27;20197;-73
2021/05/10 04:33:36;;;;;;;14.43;9.70;;;;;;;11.52;100.00;102421.84;5132570;27;20166;-74
2021/05/10 04:36:02;;;;;;;11.20;8.50;;;;;;;11.61;100.00;102410.03;5135433;27;20213;-73
2021/05/10 04:38:29;;;;;;;16.83;12.40;;;;;;;11.75;100.00;102415.56;5133389;27;20212;-72
2021/05/10 04:40:55;;;;;;;20.33;10.50;;;;;;;11.83;100.00;102413.47;5139270;27;20466;-73
2021/05/10 04:43:21;;;;;;;17.70;9.97;;;;;;;11.97;100.00;102410.19;5142860;27;20475;-76
2021/05/10 04:45:47;;;;;;;18.30;11.37;;;;;;;12.05;100.00;102401.94;5132551;27;20444;-73
2021/05/10 04:48:12;;;;;;;18.77;9.77;;;;;;;12.13;100.00;102413.84;5141097;27;20434;-74
2021/05/10 04:50:38;;;;;;;20.57;10.77;;;;;;;12.19;100.00;102413.56;5151743;27;20177;-74
2021/05/10 04:53:08;;;;;;;23.33;13.00;;;;;;;12.25;100.00;102415.06;5147906;27;20189;-75
2021/05/10 04:55:34;;;;;;;11.70;7.93;;;;;;;12.29;100.00;102413.13;5143971;27;20666;-73
2021/05/10 04:57:59;;;;;;;12.40;8.50;;;;;;;12.39;100.00;102404.72;5136149;27;20427;-73
2021/05/10 05:00:25;;;;;;;11.47;7.77;;;;;;;12.50;100.00;102406.84;5145365;27;20178;-74
2021/05/10 05:02:50;;;;;;;16.87;11.37;;;;;;;12.65;100.00;102405.25;5149103;27;20161;-77
2021/05/10 05:05:16;;;;;;;9.40;6.70;;;;;;;12.73;100.00;102401.31;5172224;27;20550;-70
2021/05/10 05:07:42;;;;;;;6.77;5.50;;;;;;;12.83;100.00;102392.94;5153354;27;20182;-72
2021/05/10 05:10:09;;;;;;;4.50;3.20;;;;;;;12.92;100.00;102392.47;5151965;27;20178;-71
2021/05/10 05:12:37;;;;;;;7.73;4.10;;;;;;;13.07;100.00;102386.41;5131689;27;20538;-75
2021/05/10 05:15:09;;;;;;;9.53;6.87;;;;;;;13.16;100.00;102395.69;5145217;27;20403;-72
2021/05/10 05:17:36;;;;;;;8.27;3.27;;;;;;;13.29;100.00;102389.69;5131385;27;20889;-74
2021/05/10 05:20:06;;;;;;;7.40;3.80;;;;;;;13.45;100.00;102391.53;5131244;27;20400;-70
2021/05/10 05:22:32;;;;;;;6.80;3.47;;;;;;;13.50;100.00;102394.81;5151895;27;20564;-70
2021/05/10 05:24:57;;;;;;;5.70;2.50;;;;;;;13.53;100.00;102390.22;5152588;27;20892;-72
2021/05/10 05:27:28;;;;;;;4.90;2.73;;;;;;;13.58;100.00;102398.75;5152600;27;20165;-75
2021/05/10 05:29:53;;;;;;;5.40;3.23;;;;;;;13.70;100.00;102399.06;5123350;27;20174;-73
2021/05/10 05:32:21;;;;;;;4.10;2.60;;;;;;;13.78;100.00;102397.69;5140860;27;20461;-75
2021/05/10 05:34:46;;;;;;;5.90;2.20;;;;;;;13.87;100.00;102396.34;5145317;27;20245;-73
2021/05/10 05:37:12;;;;;;;5.10;2.70;;;;;;;13.95;100.00;102393.28;5134426;27;20435;-76
2021/05/10 05:39:37;;;;;;;13.83;2.90;;;;;;;14.01;100.00;102400.88;5131624;27;20166;-76
2021/05/10 05:42:03;;;;;;;7.03;3.33;;;;;;;14.04;100.00;102398.06;5133815;27;20236;-77
2021/05/10 05:44:33;;;;;;;3.80;2.50;;;;;;;14.08;100.00;102405.75;5152428;27;20177;-79
2021/05/10 05:47:03;;;;;;;3.13;2.07;;;;;;;14.14;100.00;102401.94;5143143;27;20214;-78
2021/05/10 05:49:29;;;;;;;5.00;1.83;;;;;;;14.20;100.00;102406.84;5113741;28;20773;-77
2021/05/10 05:51:55;;;;;;;7.43;2.23;;;;;;;14.21;100.00;102405.94;5111167;28;20443;-75
2021/05/10 05:54:21;;;;;;;3.93;2.43;;;;;;;14.26;100.00;102410.97;5111225;28;20389;-74
2021/05/10 05:56:46;;;;;;;3.80;2.03;;;;;;;14.30;100.00;102413.38;5120395;28;20162;-77
2021/05/10 05:59:12;;;;;;;8.97;2.70;;;;;;;14.21;100.00;102407.72;5130071;28;20170;-74
2021/05/10 06:01:43;;;;;;;6.77;2.20;;;;;;;14.29;100.00;102401.09;5120168;28;20173;-85
2021/05/10 06:04:08;;;;;;;7.90;4.37;;;;;;;14.35;100.00;102411.28;5113464;28;20164;-69
2021/05/10 06:06:34;;;;;;;7.10;2.60;;;;;;;14.43;100.00;102411.75;5112720;28;20429;-77
2021/05/10 06:08:59;;;;;;;5.70;2.77;;;;;;;14.48;100.00;102416.78;5110915;28;20557;-78
2021/05/10 06:11:45;;;;;;;3.83;2.63;;;;;;;14.54;100.00;102400.59;5113408;28;20187;-73
2021/05/10 06:14:10;;;;;;;4.00;2.43;;;;;;;14.60;100.00;102409.97;5111958;28;20194;-77
2021/05/10 06:16:36;;;;;;;3.90;2.37;;;;;;;14.60;100.00;102410.81;5131929;28;20395;-75
2021/05/10 06:19:01;;;;;;;6.20;3.00;;;;;;;14.62;100.00;102416.03;5110543;28;20170;-77
2021/05/10 06:21:27;;;;;;;6.27;2.33;;;;;;;14.57;100.00;102410.97;5111008;28;20166;-75
2021/05/10 06:23:53;;;;;;;5.30;3.67;;;;;;;14.56;100.00;102413.72;5110320;28;20168;-71
2021/05/10 06:26:18;;;;;;;5.73;2.83;;;;;;;14.63;100.00;102415.94;5121897;28;20162;-73
2021/05/10 06:28:45;;;;;;;3.13;1.87;;;;;;;14.74;100.00;102414.47;5123804;28;20167;-72
2021/05/10 06:31:11;;;;;;;3.87;2.10;;;;;;;14.80;100.00;102414.97;5111003;28;20187;-77
2021/05/10 06:33:41;;;;;;;4.30;2.30;;;;;;;14.83;100.00;102420.09;5118256;28;20496;-74
2021/05/10 06:36:06;;;;;;;4.90;2.93;;;;;;;14.88;100.00;102422.47;5125464;28;20415;-72
2021/05/10 06:38:33;;;;;;;4.13;2.87;;;;;;;14.88;100.00;102425.09;5128011;28;20521;-77
2021/05/10 06:40:59;;;;;;;5.10;3.03;;;;;;;14.94;100.00;102420.31;5111082;28;20239;-83
2021/05/10 06:43:24;;;;;;;8.87;2.60;;;;;;;15.03;100.00;102424.22;5117828;27;20419;-80
2021/05/10 06:45:50;;;;;;;5.10;2.50;;;;;;;15.05;100.00;102419.69;5132420;27;20202;-83
2021/05/10 06:48:29;;;;;;;3.67;2.40;;;;;;;15.12;100.00;102429.00;5146005;27;20166;-75
2021/05/10 06:50:55;;;;;;;4.40;2.80;;;;;;;15.12;100.00;102433.44;5145034;27;20166;-77
2021/05/10 06:53:22;;;;;;;5.90;2.70;;;;;;;15.12;100.00;102433.44;5145361;27;20479;-68
2021/05/10 06:55:48;;;;;;;7.70;3.00;;;;;;;15.16;100.00;102440.25;5149196;27;20459;-70
2021/05/10 06:58:13;;;;;;;7.93;3.30;;;;;;;15.24;100.00;102440.63;5150834;27;20398;-74
2021/05/10 07:00:39;;;;;;;6.37;2.80;;;;;;;15.28;100.00;102442.19;5155559;27;20395;-76
2021/05/10 07:03:05;;;;;;;11.20;2.73;;;;;;;15.36;100.00;102439.94;5155393;27;20617;-77
2021/05/10 07:05:30;;;;;;;3.30;2.07;;;;;;;15.36;100.00;102442.56;5143458;27;20159;-68
2021/05/10 07:07:56;;;;;;;5.00;2.70;;;;;;;15.35;100.00;102443.53;5134928;27;20547;-72
2021/05/10 07:10:21;;;;;;;5.93;3.17;;;;;;;15.26;100.00;102452.88;5134149;27;20196;-72
2021/05/10 07:12:47;;;;;;;3.93;2.70;;;;;;;15.27;100.00;102454.56;5146404;27;20221;-68
2021/05/10 07:15:12;;;;;;;9.50;2.60;;;;;;;15.36;100.00;102457.63;5133979;27;20166;-74
2021/05/10 07:17:38;;;;;;;10.00;2.60;;;;;;;15.39;100.00;102460.06;5139432;27;20161;-71
2021/05/10 07:20:04;;;;;;;6.03;3.10;;;;;;;15.41;100.00;102460.81;5143980;27;20202;-75
2021/05/10 07:22:30;;;;;;;5.63;2.60;;;;;;;15.45;100.00;102455.25;5155235;27;20781;-71
2021/05/10 07:24:55;;;;;;;12.90;3.73;;;;;;;15.54;100.00;102460.00;5154632;27;20392;-69
2021/05/10 07:27:20;;;;;;;5.60;2.80;;;;;;;15.57;100.00;102461.63;5155153;27;20550;-70
2021/05/10 07:29:46;;;;;;;5.23;2.23;;;;;;;15.62;100.00;102464.88;5150886;27;20265;-72
2021/05/10 07:32:11;;;;;;;6.07;2.60;;;;;;;15.65;100.00;102462.06;5145729;27;20193;-71
2021/05/10 07:34:37;;;;;;;4.90;2.27;;;;;;;15.64;100.00;102459.47;5131625;27;20181;-75
2021/05/10 07:37:02;;;;;;;3.57;2.07;;;;;;;15.64;100.00;102459.47;5137997;27;20162;-72
2021/05/10 07:39:28;;;;;;;4.03;2.30;;;;;;;15.71;100.00;102459.00;5134009;27;20146;-73
2021/05/10 07:41:53;;;;;;;6.30;1.90;;;;;;;15.82;100.00;102461.88;5133753;27;20178;-79
2021/05/10 07:44:22;;;;;;;4.83;2.63;;;;;;;15.90;100.00;102460.56;5163410;27;20633;-81
2021/05/10 07:46:48;;;;;;;4.13;2.10;;;;;;;15.90;100.00;102452.59;5142482;27;20564;-75
2021/05/10 07:49:13;;;;;;;57.43;42.03;;;;;;;15.91;100.00;102454.31;5144029;27;20406;-79
2021/05/10 07:51:39;;;;;;;5.33;2.90;;;;;;;15.93;100.00;102463.84;5133477;27;20680;-77
2021/05/10 07:54:04;;;;;;;4.03;2.40;;;;;;;15.92;100.00;102461.31;5152319;27;20590;-79
2021/05/10 07:56:30;;;;;;;4.13;2.60;;;;;;;16.04;100.00;102460.56;5133868;27;20693;-83
2021/05/10 07:58:59;;;;;;;3.07;1.77;;;;;;;16.03;100.00;102461.50;5134991;27;20165;-72
2021/05/10 08:01:24;;;;;;;3.73;2.10;;;;;;;16.00;100.00;102459.03;5140271;27;20425;-75
2021/05/10 08:03:50;;;;;;;4.13;2.40;;;;;;;16.04;100.00;102458.75;5166092;27;20411;-76
2021/05/10 08:06:15;;;;;;;4.10;1.80;;;;;;;16.14;100.00;102464.34;5147473;27;20177;-79
2021/05/10 08:08:41;;;;;;;27.30;3.87;;;;;;;16.22;100.00;102462.06;5133845;27;20189;-69
2021/05/10 08:11:06;;;;;;;2.97;2.00;;;;;;;16.30;100.00;102461.56;5153925;27;20262;-72
2021/05/10 08:13:32;;;;;;;3.60;1.90;;;;;;;16.27;100.00;102457.31;5154025;27;20201;-71
2021/05/10 08:15:58;;;;;;;2.73;1.63;;;;;;;16.23;100.00;102460.25;5135524;27;20177;-76
2021/05/10 08:18:24;;;;;;;7.80;2.10;;;;;;;16.21;100.00;102463.00;5135719;27;20769;-71
2021/05/10 08:20:50;;;;;;;8.20;3.83;;;;;;;16.32;100.00;102454.34;5149894;27;20166;-72
2021/05/10 08:23:15;;;;;;;6.90;2.20;;;;;;;16.41;100.00;102455.59;5133240;27;20186;-71
2021/05/10 08:25:42;;;;;;;3.57;2.00;;;;;;;16.52;100.00;102456.59;5132224;27;20237;-71
2021/05/10 08:28:08;;;;;;;3.10;2.10;;;;;;;16.44;100.00;102458.03;5143329;27;20158;-75
2021/05/10 08:30:34;;;;;;;4.07;2.30;;;;;;;16.45;100.00;102455.28;5153749;27;20752;-73
2021/05/10 08:33:01;;;;;;;7.43;2.20;;;;;;;16.54;100.00;102462.66;5153207;27;20990;-69
2021/05/10 08:35:27;;;;;;;4.87;2.97;;;;;;;16.68;100.00;102445.84;5153525;27;20155;-74
2021/05/10 08:37:52;;;;;;;5.00;1.60;;;;;;;16.64;100.00;102454.97;5144556;27;20426;-74
2021/05/10 08:40:18;;;;;;;3.30;1.57;;;;;;;16.68;100.00;102445.00;5152878;27;20186;-74
2021/05/10 08:42:44;;;;;;;2.53;1.43;;;;;;;16.76;100.00;102448.88;5151224;27;20180;-73
2021/05/10 08:45:16;;;;;;;5.33;2.07;;;;;;;16.76;100.00;102451.53;5149633;27;20185;-78
2021/05/10 08:47:42;;;;;;;3.87;1.57;;;;;;;16.83;100.00;102446.66;5134182;27;20917;-70
2021/05/10 08:50:09;;;;;;;3.40;1.63;;;;;;;16.80;100.00;102445.09;5143911;27;20490;-69
2021/05/10 08:52:35;;;;;;;3.03;1.40;;;;;;;16.88;100.00;102442.78;5155048;27;20189;-70
2021/05/10 08:55:03;;;;;;;4.07;1.93;;;;;;;16.95;100.00;102437.06;5139254;27;20451;-72
2021/05/10 08:57:28;;;;;;;3.90;1.70;;;;;;;16.93;100.00;102429.19;5145087;27;20411;-70
2021/05/10 08:59:54;;;;;;;3.27;1.47;;;;;;;16.98;100.00;102432.38;5150010;27;20407;-70
2021/05/10 09:02:33;;;;;;;2.90;1.70;;;;;;;16.92;100.00;102433.63;5148683;27;20177;-73
2021/05/10 09:05:16;;;;;;;5.70;2.33;;;;;;;16.96;100.00;102434.28;5150629;27;20191;-71
2021/05/10 09:07:42;;;;;;;2.97;1.67;;;;;;;17.01;100.00;102441.97;5136274;27;20985;-75
2021/05/10 09:10:13;;;;;;;3.87;1.70;;;;;;;16.97;100.00;102435.16;5131555;27;20442;-71
2021/05/10 09:12:52;;;;;;;2.73;1.40;;;;;;;16.97;100.00;102408.59;5148115;27;20818;-68
2021/05/10 09:15:25;;;;;;;3.60;1.90;;;;;;;17.03;100.00;102413.50;5124678;27;21272;-68
2021/05/10 09:17:56;;;;;;;7.73;1.73;;;;;;;17.06;100.00;102414.13;5134390;27;20507;-75
2021/05/10 09:20:38;;;;;;;2.60;1.63;;;;;;;17.15;100.00;102408.22;5133502;27;20434;-74
2021/05/10 09:23:09;;;;;;;3.27;1.67;;;;;;;17.21;100.00;102406.94;5145576;27;20420;-72
2021/05/10 09:25:42;;;;;;;2.70;1.50;;;;;;;17.24;100.00;102403.22;5144414;27;20418;-70
2021/05/10 09:28:11;;;;;;;4.27;1.93;;;;;;;17.15;100.00;102412.66;5147684;27;20415;-71
2021/05/10 09:30:37;;;;;;;4.73;2.40;;;;;;;17.11;100.00;102408.50;5138999;27;20399;-71
2021/05/10 09:33:02;;;;;;;5.10;2.37;;;;;;;17.21;100.00;102406.94;5149473;27;20527;-71
2021/05/10 09:35:29;;;;;;;3.20;1.43;;;;;;;17.15;100.00;102407.34;5149959;27;20814;-68
2021/05/10 09:37:56;;;;;;;5.70;2.33;;;;;;;17.26;100.00;102404.81;5145099;27;20231;-69
2021/05/10 09:40:22;;;;;;;3.73;2.10;;;;;;;17.36;100.00;102400.56;5161024;27;20451;-69
2021/05/10 09:42:49;;;;;;;4.13;2.23;;;;;;;17.37;100.00;102404.91;5148948;27;20838;-67
2021/05/10 09:45:51;;;;;;;3.47;2.03;;;;;;;17.36;100.00;102402.38;5149378;27;20158;-68
2021/05/10 09:48:23;;;;;;;2.63;1.33;;;;;;;17.42;100.00;102400.16;5065717;28;20541;-68
2021/05/10 09:50:56;;;;;;;2.60;1.30;;;;;;;17.40;100.00;102401.22;5130663;27;20410;-68
2021/05/10 09:53:41;;;;;;;4.23;1.60;;;;;;;17.43;100.00;102401.84;5148284;27;20468;-67
2021/05/10 09:56:16;;;;;;;4.13;1.80;;;;;;;17.53;100.00;102395.88;5137710;27;20414;-69
2021/05/10 09:58:48;;;;;;;3.50;2.40;;;;;;;17.55;100.00;102392.19;5134408;27;20419;-68
2021/05/10 10:01:14;;;;;;;3.00;1.57;;;;;;;17.47;100.00;102386.56;5139099;27;21402;-68
2021/05/10 10:03:44;;;;;;;4.30;1.30;;;;;;;17.54;100.00;102386.97;5145189;27;21030;-69
2021/05/10 10:06:14;;;;;;;3.40;1.63;;;;;;;17.73;100.00;102379.44;5133322;27;20679;-70
2021/05/10 10:08:48;;;;;;;4.67;1.50;;;;;;;17.81;100.00;102378.88;5135182;27;20428;-69
2021/05/10 10:11:19;;;;;;;5.17;2.10;;;;;;;17.78;100.00;102372.00;5128367;27;20455;-70
2021/05/10 10:13:45;;;;;;;7.50;1.80;;;;;;;17.68;100.00;102374.44;5111689;27;21275;-70
2021/05/10 10:16:12;;;;;;;2.80;1.70;;;;;;;17.77;100.00;102370.28;5145417;27;20494;-68
2021/05/10 10:18:40;;;;;;;4.13;1.40;;;;;;;18.18;100.00;102361.97;5128228;27;20400;-69
2021/05/10 10:21:10;;;;;;;3.60;1.70;;;;;;;18.91;100.00;102360.16;5137158;27;20434;-70
2021/05/10 10:23:37;;;;;;;4.53;1.63;;;;;;;19.93;89.75;102352.16;5131745;27;20511;-70
2021/05/10 10:26:10;;;;;;;2.47;1.10;;;;;;;20.35;85.40;102349.63;5133504;27;20423;-68
2021/05/10 10:28:37;;;;;;;3.73;1.20;;;;;;;19.91;82.21;102352.28;5131861;27;20428;-69
2021/05/10 10:31:07;;;;;;;4.00;1.63;;;;;;;19.53;83.51;102352.63;5130685;27;20513;-69
2021/05/10 10:33:47;;;;;;;2.80;1.27;;;;;;;19.06;81.93;102359.84;5146519;27;20791;-74
2021/05/10 10:36:21;;;;;;;2.60;1.40;;;;;;;18.87;80.33;102348.88;5152623;27;20419;-69
2021/05/10 10:38:47;;;;;;;3.07;1.90;;;;;;;18.69;80.13;102350.28;5148020;27;20411;-69
2021/05/10 10:41:25;;;;;;;2.57;1.23;;;;;;;18.43;88.16;102346.88;5155471;27;20410;-68
2021/05/10 10:43:51;;;;;;;5.63;2.93;;;;;;;18.38;93.55;102344.56;5137236;27;20162;-67
2021/05/10 10:46:26;;;;;;;3.13;1.50;;;;;;;18.38;96.20;102343.72;5145113;27;20451;-69
2021/05/10 10:48:53;;;;;;;3.80;1.90;;;;;;;18.27;97.82;102347.16;5142097;27;20418;-67
2021/05/10 10:51:19;;;;;;;4.70;1.40;;;;;;;18.17;96.86;102348.78;5114744;27;20452;-68
2021/05/10 10:54:18;;;;;;;4.27;1.50;;;;;;;18.18;98.07;102339.84;5121729;27;20473;-69
2021/05/10 10:56:50;;;;;;;3.20;1.33;;;;;;;18.10;96.55;102337.75;5119114;27;20532;-68
2021/05/10 10:59:37;;;;;;;3.10;1.53;;;;;;;18.15;92.74;102340.09;5113396;28;20473;-71
2021/05/10 11:02:21;;;;;;;3.93;1.30;;;;;;;18.13;92.25;102332.19;5113707;28;20385;-67
2021/05/10 11:05:07;;;;;;;3.80;1.30;;;;;;;18.04;93.87;102332.88;5113636;28;20405;-68
2021/05/10 11:07:48;;;;;;;2.70;1.20;;;;;;;18.08;89.83;102323.72;5113845;28;20940;-71
2021/05/10 11:10:39;;;;;;;2.93;1.13;;;;;;;18.10;86.10;102315.63;5112570;28;20415;-71
2021/05/10 11:13:06;;;;;;;2.80;1.53;;;;;;;18.13;84.54;102312.72;5113590;28;20440;-74
2021/05/10 11:15:35;;;;;;;7.30;1.90;;;;;;;18.15;87.65;102308.16;5113607;28;20522;-70
2021/05/10 11:18:02;;;;;;;4.63;1.33;;;;;;;18.19;87.78;102313.13;5112879;28;20576;-70
2021/05/10 11:20:47;;;;;;;2.83;1.27;;;;;;;18.15;90.03;102306.34;5113848;28;20381;-72
2021/05/10 11:23:21;;;;;;;2.50;1.17;;;;;;;18.06;94.18;102303.50;5113298;28;20481;-70
2021/05/10 11:25:47;;;;;;;2.63;1.40;;;;;;;18.11;95.58;102306.66;5123347;27;20407;-72
2021/05/10 11:28:25;;;;;;;3.40;1.40;;;;;;;18.10;95.25;102299.66;5132568;27;20556;-71